createdAt,value
2022-09-17T00:01:32.568Z,99.90
2022-09-17T00:04:04.136Z,99.90
2022-09-17T00:06:34.436Z,99.90
2022-09-17T00:09:02.573Z,99.90
2022-09-17T00:11:33.543Z,99.90
2022-09-17T00:18:18.298Z,99.90
2022-09-17T00:20:47.072Z,99.90
2022-09-17T00:23:14.420Z,99.90
2022-09-17T00:25:43.129Z,99.90
2022-09-17T00:28:11.927Z,99.90
2022-09-17T00:30:44.303Z,99.90
2022-09-17T00:33:14.192Z,99.90
2022-09-17T00:38:16.371Z,99.90
2022-09-17T00:40:43.237Z,99.90
2022-09-17T00:43:12.525Z,99.90
2022-09-17T00:45:40.248Z,99.90
2022-09-17T00:48:10.263Z,99.90
2022-09-17T00:50:41.649Z,99.90
2022-09-17T00:53:13.790Z,99.90
2022-09-17T00:58:32.456Z,99.90
2022-09-17T01:00:59.755Z,99.90
2022-09-17T01:03:27.136Z,99.90
2022-09-17T01:06:22.111Z,99.90
2022-09-17T01:09:07.322Z,99.90
2022-09-17T01:11:40.668Z,99.90
2022-09-17T01:18:09.762Z,99.90
2022-09-17T01:20:59.584Z,99.90
2022-09-17T01:23:38.801Z,99.90
2022-09-17T01:26:15.959Z,99.90
2022-09-17T01:29:19.486Z,99.90
2022-09-17T01:32:02.939Z,99.90
2022-09-17T01:40:47.200Z,99.90
2022-09-17T01:43:29.923Z,99.90
2022-09-17T01:46:02.567Z,99.90
2022-09-17T01:48:49.351Z,99.90
2022-09-17T01:51:24.299Z,99.90
2022-09-17T01:53:57.615Z,99.90
2022-09-17T02:01:40.474Z,99.90
2022-09-17T02:04:28.696Z,99.90
2022-09-17T02:07:13.342Z,99.90
2022-09-17T02:09:45.545Z,99.90
2022-09-17T02:12:23.958Z,99.90
2022-09-17T02:14:56.489Z,99.90
2022-09-17T02:23:01.847Z,99.90
2022-09-17T02:25:40.316Z,99.90
2022-09-17T02:28:28.997Z,99.90
2022-09-17T02:30:55.774Z,99.90
2022-09-17T02:35:50.286Z,99.90
2022-09-17T02:41:19.295Z,99.90
2022-09-17T02:44:00.082Z,99.90
2022-09-17T02:46:43.343Z,99.90
2022-09-17T02:49:25.334Z,99.90
2022-09-17T02:52:24.243Z,99.90
2022-09-17T02:55:16.689Z,99.90
2022-09-17T03:03:41.761Z,99.90
2022-09-17T03:06:09.446Z,99.90
2022-09-17T03:08:40.490Z,99.90
2022-09-17T03:11:10.111Z,99.90
2022-09-17T03:13:36.973Z,99.90
2022-09-17T03:16:05.427Z,99.90
2022-09-17T03:18:32.989Z,99.90
2022-09-17T03:24:57.573Z,99.90
2022-09-17T03:27:24.287Z,99.90
2022-09-17T03:29:51.083Z,99.90
2022-09-17T03:32:18.298Z,99.90
2022-09-17T03:34:46.770Z,99.90
2022-09-17T03:37:14.284Z,99.90
2022-09-17T03:39:41.355Z,99.90
2022-09-17T03:44:48.125Z,99.90
2022-09-17T03:47:16.796Z,99.90
2022-09-17T03:49:43.737Z,99.90
2022-09-17T03:52:10.579Z,99.90
2022-09-17T03:54:37.460Z,99.90
2022-09-17T03:57:04.416Z,99.90
2022-09-17T03:59:31.866Z,99.90
2022-09-17T04:06:31.265Z,99.90
2022-09-17T04:09:00.273Z,99.90
2022-09-17T04:11:27.248Z,99.90
2022-09-17T04:13:54.822Z,99.90
2022-09-17T04:16:22.220Z,99.90
2022-09-17T04:18:49.389Z,99.90
2022-09-17T04:21:16.717Z,99.90
2022-09-17T04:27:15.015Z,99.90
2022-09-17T04:29:41.884Z,99.90
2022-09-17T04:32:08.704Z,99.90
2022-09-17T04:34:35.452Z,99.90
2022-09-17T04:37:02.082Z,99.90
2022-09-17T04:39:29.251Z,99.90
2022-09-17T04:48:58.084Z,99.90
2022-09-17T04:53:52.646Z,99.90
2022-09-17T04:56:19.926Z,99.90
2022-09-17T04:58:47.058Z,99.90
2022-09-17T05:01:14.783Z,99.90
2022-09-17T05:03:41.869Z,99.90
2022-09-17T05:09:26.414Z,99.90
2022-09-17T05:11:53.539Z,99.90
2022-09-17T05:14:20.775Z,99.90
2022-09-17T05:16:48.065Z,99.90
2022-09-17T05:19:15.896Z,99.90
2022-09-17T05:21:42.719Z,99.90
2022-09-17T05:24:09.469Z,99.90
2022-09-17T05:31:42.106Z,99.90
2022-09-17T05:34:09.270Z,99.90
2022-09-17T05:36:36.885Z,99.90
2022-09-17T05:39:03.969Z,99.90
2022-09-17T05:41:30.663Z,99.90
2022-09-17T05:43:57.434Z,99.90
2022-09-17T05:46:24.647Z,99.90
2022-09-17T05:53:55.548Z,99.90
2022-09-17T05:56:23.696Z,99.90
2022-09-17T05:58:54.773Z,99.90
2022-09-17T06:01:21.910Z,99.90
2022-09-17T06:03:49.612Z,99.90
2022-09-17T06:06:17.343Z,99.90
2022-09-17T06:08:44.049Z,99.90
2022-09-17T06:16:14.982Z,99.90
2022-09-17T06:18:42.302Z,99.90
2022-09-17T06:21:09.157Z,99.90
2022-09-17T06:23:36.768Z,99.90
2022-09-17T06:26:05.538Z,99.90
2022-09-17T06:28:32.553Z,99.90
2022-09-17T06:31:04.572Z,99.90
2022-09-17T06:38:30.526Z,99.90
2022-09-17T06:40:57.854Z,99.90
2022-09-17T06:43:24.920Z,99.90
2022-09-17T06:46:05.345Z,99.90
2022-09-17T06:48:34.021Z,99.90
2022-09-17T06:51:07.278Z,99.90
2022-09-17T06:53:36.908Z,99.90
2022-09-17T07:00:27.728Z,99.90
2022-09-17T07:02:58.953Z,99.90
2022-09-17T07:05:27.098Z,99.90
2022-09-17T07:07:54.575Z,99.90
2022-09-17T07:10:23.101Z,99.90
2022-09-17T07:12:50.179Z,99.90
2022-09-17T07:15:17.252Z,99.90
2022-09-17T07:21:56.246Z,99.90
2022-09-17T07:24:23.282Z,99.90
2022-09-17T07:26:51.152Z,99.90
2022-09-17T07:29:18.212Z,99.90
2022-09-17T07:31:45.031Z,99.90
2022-09-17T07:34:12.078Z,99.90
2022-09-17T07:36:38.809Z,99.90
2022-09-17T07:44:09.542Z,99.90
2022-09-17T07:46:37.061Z,99.90
2022-09-17T07:49:03.791Z,99.90
2022-09-17T07:51:31.103Z,99.90
2022-09-17T07:53:58.995Z,99.90
2022-09-17T07:56:27.051Z,99.90
2022-09-17T07:58:55.019Z,99.90
2022-09-17T08:05:50.627Z,86.60
2022-09-17T08:08:21.052Z,82.90
2022-09-17T08:10:48.394Z,82.80
2022-09-17T08:13:15.467Z,81.00
2022-09-17T08:15:42.241Z,83.70
2022-09-17T08:18:09.427Z,81.80
2022-09-17T08:20:36.376Z,86.50
2022-09-17T08:28:04.016Z,91.20
2022-09-17T08:30:31.822Z,87.00
2022-09-17T08:32:58.937Z,80.20
2022-09-17T08:35:27.495Z,80.90
2022-09-17T08:37:55.375Z,72.60
2022-09-17T08:40:22.864Z,69.80
2022-09-17T08:42:56.782Z,67.30
2022-09-17T08:50:33.494Z,62.70
2022-09-17T08:53:25.252Z,62.40
2022-09-17T08:56:02.321Z,59.20
2022-09-17T08:58:43.727Z,62.10
2022-09-17T09:01:22.676Z,61.40
2022-09-17T09:04:15.704Z,59.90
2022-09-17T09:12:41.063Z,58.10
2022-09-17T09:15:41.724Z,58.50
2022-09-17T09:18:22.021Z,59.30
2022-09-17T09:20:53.292Z,59.40
2022-09-17T09:23:34.857Z,59.00
2022-09-17T09:26:20.059Z,60.10
2022-09-17T09:29:14.957Z,60.80
2022-09-17T09:37:17.043Z,61.60
2022-09-17T09:39:46.360Z,61.50
2022-09-17T09:42:23.986Z,62.50
2022-09-17T09:44:51.153Z,63.30
2022-09-17T09:47:37.850Z,64.70
2022-09-17T09:50:11.693Z,64.90
2022-09-17T09:52:51.622Z,65.10
2022-09-17T10:00:38.837Z,66.30
2022-09-17T10:03:25.937Z,65.30
2022-09-17T10:06:07.712Z,62.90
2022-09-17T10:08:37.082Z,60.40
2022-09-17T10:11:06.953Z,60.00
2022-09-17T10:13:35.541Z,59.10
2022-09-17T10:19:25.163Z,55.20
2022-09-17T10:21:52.883Z,56.70
2022-09-17T10:24:26.377Z,57.50
2022-09-17T10:27:05.405Z,57.10
2022-09-17T10:29:33.932Z,57.50
2022-09-17T10:32:02.473Z,55.60
2022-09-17T10:34:32.233Z,56.30
2022-09-17T10:41:33.582Z,56.90
2022-09-17T10:44:18.055Z,57.70
2022-09-17T10:46:44.935Z,58.80
2022-09-17T10:49:18.235Z,59.10
2022-09-17T10:51:45.110Z,59.30
2022-09-17T10:54:30.952Z,60.10
2022-09-17T10:56:59.002Z,60.40
2022-09-17T11:06:01.405Z,62.20
2022-09-17T11:08:43.308Z,63.80
2022-09-17T11:11:33.220Z,65.00
2022-09-17T11:14:21.813Z,67.30
2022-09-17T11:16:58.977Z,70.50
2022-09-17T11:19:25.987Z,74.60
2022-09-17T11:28:55.697Z,92.50
2022-09-17T11:31:38.689Z,95.10
2022-09-17T11:34:34.578Z,99.50
2022-09-17T11:37:20.028Z,96.30
2022-09-17T11:39:58.826Z,99.10
2022-09-17T11:42:35.910Z,97.70
2022-09-17T12:32:43.472Z,96.30
2022-09-17T12:35:52.999Z,98.30
2022-09-17T12:39:02.808Z,99.90
2022-09-17T12:41:39.132Z,99.90
2022-09-17T12:44:35.876Z,99.90
2022-09-17T12:47:03.362Z,99.90
2022-09-17T12:50:00.814Z,99.90
2022-09-17T12:52:42.557Z,99.90
2022-09-17T12:55:19.206Z,99.90
2022-09-17T13:02:13.555Z,99.90
2022-09-17T13:05:25.469Z,99.90
2022-09-17T13:17:46.772Z,94.30
2022-09-17T13:23:52.411Z,96.10
2022-09-17T13:26:24.497Z,99.90
2022-09-17T13:28:53.118Z,99.90
2022-09-17T13:31:22.226Z,99.30
2022-09-17T13:50:05.820Z,99.70
2022-09-17T13:53:14.901Z,99.90
2022-09-17T13:56:00.679Z,99.90
2022-09-17T13:58:31.556Z,99.90
2022-09-17T14:01:03.437Z,99.90
2022-09-17T14:03:43.897Z,99.90
2022-09-17T14:11:26.625Z,99.90
2022-09-17T14:14:03.169Z,99.90
2022-09-17T14:16:47.905Z,99.90
2022-09-17T14:19:51.589Z,99.90
2022-09-17T14:22:29.891Z,99.90
2022-09-17T14:24:59.066Z,99.90
2022-09-17T14:43:33.994Z,99.90
2022-09-17T14:46:09.469Z,99.90
2022-09-17T14:48:38.367Z,99.90
2022-09-17T14:51:17.489Z,99.90
2022-09-17T14:53:45.763Z,99.90
2022-09-17T14:56:20.484Z,99.90
2022-09-17T14:58:50.856Z,99.90
2022-09-17T15:06:43.464Z,91.10
2022-09-17T15:09:19.244Z,99.90
2022-09-17T15:11:48.060Z,99.90
2022-09-17T15:14:21.918Z,99.90
2022-09-17T15:16:52.254Z,99.90
2022-09-17T15:19:32.860Z,99.90
2022-09-17T15:25:23.446Z,99.90
2022-09-17T15:27:55.440Z,99.90
2022-09-17T15:30:26.050Z,99.90
2022-09-17T15:32:56.341Z,99.90
2022-09-17T15:35:29.770Z,99.90
2022-09-17T15:40:51.345Z,99.90
2022-09-17T15:47:54.032Z,99.90
2022-09-17T15:50:26.699Z,99.90
2022-09-17T15:53:27.894Z,99.90
2022-09-17T15:56:28.680Z,99.90
2022-09-17T15:59:22.602Z,99.90
2022-09-17T16:01:52.431Z,99.90
2022-09-17T16:09:02.539Z,99.90
2022-09-17T16:11:32.793Z,99.90
2022-09-17T16:14:17.547Z,99.90
2022-09-17T16:16:45.922Z,99.90
2022-09-17T16:19:13.255Z,99.90
2022-09-17T16:21:40.082Z,99.90
2022-09-17T16:26:58.237Z,99.90
2022-09-17T16:29:25.712Z,99.90
2022-09-17T16:32:17.324Z,99.90
2022-09-17T16:34:44.494Z,99.90
2022-09-17T16:37:11.377Z,99.90
2022-09-17T16:39:38.398Z,99.90
2022-09-17T16:44:44.851Z,99.90
2022-09-17T16:47:19.260Z,99.90
2022-09-17T16:50:10.872Z,99.90
2022-09-17T16:52:40.285Z,99.90
2022-09-17T16:55:07.883Z,99.90
2022-09-17T16:57:34.773Z,99.90
2022-09-17T17:00:02.165Z,99.90
2022-09-17T17:05:08.124Z,99.90
2022-09-17T17:07:37.443Z,99.90
2022-09-17T17:10:05.493Z,99.90
2022-09-17T17:12:32.459Z,99.90
2022-09-17T17:14:59.365Z,99.90
2022-09-17T17:17:27.453Z,99.90
2022-09-17T17:19:54.503Z,99.90
2022-09-17T17:27:20.116Z,99.90
2022-09-17T17:29:48.365Z,99.90
2022-09-17T17:32:15.953Z,99.90
2022-09-17T17:34:43.602Z,99.90
2022-09-17T17:37:13.889Z,99.90
2022-09-17T17:40:10.476Z,99.90
2022-09-17T17:46:33.105Z,99.90
2022-09-17T17:49:01.967Z,99.90
2022-09-17T17:51:29.389Z,99.90
2022-09-17T17:53:58.450Z,99.90
2022-09-17T17:56:34.688Z,99.90
2022-09-17T17:59:03.786Z,99.90
2022-09-17T18:01:34.334Z,99.90
2022-09-17T18:06:50.715Z,99.90
2022-09-17T18:09:27.098Z,99.90
2022-09-17T18:11:57.576Z,99.90
2022-09-17T18:14:24.443Z,99.90
2022-09-17T18:16:52.561Z,99.90
2022-09-17T18:19:19.927Z,99.90
2022-09-17T18:24:58.095Z,99.90
2022-09-17T18:27:26.045Z,99.90
2022-09-17T18:29:57.031Z,99.90
2022-09-17T18:32:25.071Z,99.90
2022-09-17T18:34:59.428Z,99.90
2022-09-17T18:37:28.620Z,99.90
2022-09-17T18:39:59.506Z,99.90
2022-09-17T18:45:07.268Z,99.90
2022-09-17T18:47:34.019Z,99.90
2022-09-17T18:50:02.301Z,99.90
2022-09-17T18:52:31.776Z,99.90
2022-09-17T18:55:02.621Z,99.90
2022-09-17T18:57:32.532Z,99.90
2022-09-17T19:00:00.283Z,99.90
2022-09-17T19:15:59.242Z,99.90
2022-09-17T19:18:26.699Z,99.90
2022-09-17T19:21:01.888Z,99.90
2022-09-17T19:23:30.731Z,99.90
2022-09-17T19:26:29.912Z,99.90
2022-09-17T19:28:59.981Z,99.90
2022-09-17T19:36:22.127Z,99.90
2022-09-17T19:38:51.990Z,99.90
2022-09-17T19:41:25.170Z,99.90
2022-09-17T19:43:56.295Z,99.90
2022-09-17T19:46:26.045Z,99.90
2022-09-17T19:48:56.595Z,99.90
2022-09-17T19:51:25.793Z,99.90
2022-09-17T19:58:52.623Z,99.90
2022-09-17T20:01:20.418Z,99.90
2022-09-17T20:04:06.689Z,99.90
2022-09-17T20:06:34.293Z,99.90
2022-09-17T20:09:09.082Z,99.90
2022-09-17T20:11:42.255Z,99.90
2022-09-17T20:17:10.361Z,99.90
2022-09-17T20:20:11.542Z,99.90
2022-09-17T20:22:48.713Z,99.90
2022-09-17T20:25:25.154Z,99.90
2022-09-17T20:27:53.360Z,99.90
2022-09-17T20:30:28.356Z,99.90
2022-09-17T20:38:18.515Z,99.90
2022-09-17T20:40:16.707Z,99.90
2022-09-17T20:42:43.529Z,99.90
2022-09-17T20:45:10.546Z,99.90
2022-09-17T20:47:39.259Z,99.90
2022-09-17T20:50:07.315Z,99.90
2022-09-17T20:52:34.298Z,99.90
2022-09-17T20:59:24.227Z,99.90
2022-09-17T21:01:53.228Z,99.90
2022-09-17T21:04:27.490Z,99.90
2022-09-17T21:06:55.965Z,99.90
2022-09-17T21:09:30.109Z,99.90
2022-09-17T21:12:03.896Z,99.90
2022-09-17T21:17:11.810Z,99.90
2022-09-17T21:19:39.147Z,99.90
2022-09-17T21:22:06.220Z,99.90
2022-09-17T21:24:33.207Z,99.90
2022-09-17T21:27:01.412Z,99.90
2022-09-17T21:29:29.584Z,99.90
2022-09-17T21:31:57.604Z,99.90
2022-09-17T21:39:11.877Z,99.90
2022-09-17T21:41:42.954Z,99.90
2022-09-17T21:44:11.249Z,99.90
2022-09-17T21:46:48.356Z,99.90
2022-09-17T21:49:17.149Z,99.90
2022-09-17T21:51:47.230Z,99.90
2022-09-17T21:54:16.298Z,99.90
2022-09-17T21:59:35.535Z,99.90
2022-09-17T22:02:04.110Z,99.90
2022-09-17T22:04:31.574Z,99.90
2022-09-17T22:07:03.935Z,99.90
2022-09-17T22:09:31.296Z,99.90
2022-09-17T22:12:01.249Z,99.90
2022-09-17T22:14:28.223Z,99.90
2022-09-17T22:21:39.459Z,99.90
2022-09-17T22:24:07.032Z,99.90
2022-09-17T22:26:36.822Z,99.90
2022-09-17T22:29:08.049Z,99.90
2022-09-17T22:31:35.926Z,99.90
2022-09-17T22:34:07.829Z,99.90
2022-09-17T22:36:35.121Z,99.90
2022-09-17T22:43:44.765Z,99.90
2022-09-17T22:46:23.406Z,99.90
2022-09-17T22:48:53.899Z,99.90
2022-09-17T22:51:25.964Z,99.90
2022-09-17T22:53:53.852Z,99.90
2022-09-17T22:56:22.720Z,99.90
2022-09-17T22:58:50.647Z,99.90
2022-09-17T23:04:10.939Z,99.90
2022-09-17T23:06:44.354Z,99.90
2022-09-17T23:09:32.625Z,99.90
2022-09-17T23:11:59.950Z,99.90
2022-09-17T23:14:33.907Z,99.90
2022-09-17T23:17:08.288Z,99.90
2022-09-17T23:19:39.102Z,99.90
2022-09-17T23:24:46.920Z,99.90
2022-09-17T23:27:20.439Z,99.90
2022-09-17T23:29:50.488Z,99.90
2022-09-17T23:32:17.917Z,99.90
2022-09-17T23:34:45.701Z,99.90
2022-09-17T23:37:13.150Z,99.90
2022-09-17T23:39:41.245Z,99.90
2022-09-17T23:46:14.368Z,99.90
2022-09-17T23:48:42.458Z,99.90
2022-09-17T23:51:09.855Z,99.90
2022-09-17T23:53:38.450Z,99.90
2022-09-17T23:56:14.804Z,99.90
2022-09-17T23:58:41.985Z,99.90
